Terminal Aerodrome Forecast
Issued by NWS

Home | Current Version | Previous Version | Text Only | Print | Product List | Glossary On
Versions: 1 2 3 4 5 6 7 8 9 10 11 12 13 14 15 16 17 18 19 20 21 22 23 24 25 26 27 28 29 30 31 32 33
000
FTUS42 KCAE 192100 AAB
TAFOGB
TAF AMD
KOGB 192159Z 1922/2018 19010G15KT 3SM SHRA BR VCTS OVC009CB
     FM200000 20008KT P6SM OVC015
     FM200500 21008KT P6SM OVC007 WS015/21030KT
     FM201500 22012G20KT P6SM BKN020=

USA.gov is the U.S. government's official web portal to all federal, state and local government web resources and services.